createdAt,value
2019-02-07T00:01:45.554Z,24.02
2019-02-07T00:04:15.012Z,23.42
2019-02-07T00:06:44.724Z,20.65
2019-02-07T00:09:14.172Z,23.30
2019-02-07T00:11:43.708Z,22.50
2019-02-07T00:14:13.153Z,18.92
2019-02-07T00:16:42.622Z,24.90
2019-02-07T00:19:12.042Z,28.10
2019-02-07T00:21:41.496Z,19.62
2019-02-07T00:24:11.172Z,19.80
2019-02-07T00:26:40.835Z,20.65
2019-02-07T00:29:10.830Z,16.32
2019-02-07T00:31:40.463Z,23.55
2019-02-07T00:34:10.210Z,20.88
2019-02-07T00:36:39.844Z,20.68
2019-02-07T00:39:10.228Z,19.20
2019-02-07T00:41:40.210Z,18.15
2019-02-07T00:44:09.938Z,18.37
2019-02-07T00:46:39.630Z,19.73
2019-02-07T00:49:09.277Z,20.12
2019-02-07T00:51:38.936Z,17.55
2019-02-07T00:54:08.657Z,22.07
2019-02-07T00:56:39.846Z,20.50
2019-02-07T00:59:09.585Z,19.98
2019-02-07T01:01:39.270Z,20.52
2019-02-07T01:04:08.961Z,23.87
2019-02-07T01:06:38.668Z,22.20
2019-02-07T01:09:10.279Z,20.40
2019-02-07T01:11:39.980Z,18.98
2019-02-07T01:14:09.607Z,20.23
2019-02-07T01:16:39.410Z,17.15
2019-02-07T01:19:09.137Z,16.67
2019-02-07T01:21:38.812Z,19.52
2019-02-07T01:24:08.950Z,21.57
2019-02-07T01:26:38.611Z,20.05
2019-02-07T01:29:08.406Z,19.92
2019-02-07T01:31:38.024Z,17.95
2019-02-07T01:34:07.994Z,21.23
2019-02-07T01:36:37.648Z,18.02
2019-02-07T01:39:09.277Z,20.65
2019-02-07T01:41:38.904Z,19.17
2019-02-07T01:44:08.528Z,20.88
2019-02-07T01:46:38.220Z,18.85
2019-02-07T01:49:07.857Z,18.87
2019-02-07T01:51:37.509Z,21.33
2019-02-07T01:54:07.255Z,20.55
2019-02-07T01:56:36.953Z,19.70
2019-02-07T01:59:06.905Z,24.52
2019-02-07T02:01:36.530Z,22.52
2019-02-07T02:04:06.203Z,16.75
2019-02-07T02:06:36.120Z,19.73
2019-02-07T02:09:08.855Z,11.48
2019-02-07T02:11:38.479Z,17.07
2019-02-07T02:14:08.228Z,18.25
2019-02-07T02:16:37.898Z,18.00
2019-02-07T02:19:07.614Z,17.85
2019-02-07T02:21:37.370Z,15.48
2019-02-07T02:24:07.156Z,15.18
2019-02-07T02:26:36.807Z,18.02
2019-02-07T02:29:06.626Z,16.60
2019-02-07T02:31:36.362Z,21.95
2019-02-07T02:34:06.116Z,21.10
2019-02-07T02:36:35.843Z,17.95
2019-02-07T02:39:08.459Z,18.37
2019-02-07T02:41:38.084Z,20.32
2019-02-07T02:44:07.702Z,18.37
2019-02-07T02:46:37.486Z,21.15
2019-02-07T02:49:07.403Z,22.07
2019-02-07T02:51:37.127Z,15.38
2019-02-07T02:54:06.864Z,18.15
2019-02-07T02:56:36.737Z,26.02
2019-02-07T02:59:06.582Z,18.12
2019-02-07T03:01:56.584Z,20.15
2019-02-07T03:04:43.720Z,19.10
2019-02-07T03:07:35.146Z,15.23
2019-02-07T03:10:24.510Z,17.42
2019-02-07T03:13:13.097Z,17.82
2019-02-07T03:16:04.767Z,14.35
2019-02-07T03:18:53.287Z,20.82
2019-02-07T03:21:44.621Z,17.82
2019-02-07T03:24:33.220Z,18.60
2019-02-07T03:27:27.911Z,16.32
2019-02-07T03:30:15.084Z,16.75
2019-02-07T03:32:53.346Z,17.80
2019-02-07T03:35:28.828Z,20.20
2019-02-07T03:38:17.389Z,16.05
2019-02-07T03:41:14.886Z,22.00
2019-02-07T03:44:06.484Z,14.83
2019-02-07T03:47:04.016Z,19.52
2019-02-07T03:49:44.614Z,15.63
2019-02-07T03:52:25.114Z,14.73
2019-02-07T03:55:13.697Z,21.90
2019-02-07T03:58:05.108Z,16.23
2019-02-07T04:00:53.704Z,17.77
2019-02-07T04:03:51.204Z,18.52
2019-02-07T04:06:31.857Z,15.60
2019-02-07T04:09:14.634Z,21.02
2019-02-07T04:12:10.736Z,20.85
2019-02-07T04:14:57.919Z,13.45
2019-02-07T04:17:58.469Z,19.98
2019-02-07T04:20:45.587Z,13.85
2019-02-07T04:23:37.480Z,18.27
2019-02-07T04:26:37.992Z,17.17
2019-02-07T04:29:32.745Z,19.45
2019-02-07T04:32:36.567Z,21.33
2019-02-07T04:35:24.517Z,21.48
2019-02-07T04:38:24.832Z,14.03
2019-02-07T04:41:16.393Z,13.28
2019-02-07T04:44:03.452Z,18.62
2019-02-07T04:47:00.851Z,15.80
2019-02-07T04:49:55.254Z,17.20
2019-02-07T04:52:53.375Z,19.75
2019-02-07T04:55:40.826Z,17.52
2019-02-07T04:58:25.316Z,24.00
2019-02-07T05:01:26.023Z,15.85
2019-02-07T05:04:04.175Z,15.88
2019-02-07T05:06:58.475Z,23.32
2019-02-07T05:10:05.017Z,17.07
2019-02-07T05:12:49.222Z,19.10
2019-02-07T05:15:36.478Z,16.32
2019-02-07T05:18:21.900Z,15.80
2019-02-07T05:21:03.401Z,14.35
2019-02-07T05:23:50.541Z,17.73
2019-02-07T05:26:41.888Z,20.57
2019-02-07T05:29:33.445Z,18.73
2019-02-07T05:32:27.826Z,13.20
2019-02-07T05:35:16.341Z,13.70
2019-02-07T05:38:07.249Z,14.83
2019-02-07T05:40:55.825Z,15.25
2019-02-07T05:43:50.265Z,13.13
2019-02-07T05:46:50.621Z,15.65
2019-02-07T05:49:31.753Z,14.33
2019-02-07T05:52:23.168Z,15.15
2019-02-07T05:55:17.642Z,13.58
2019-02-07T05:58:21.313Z,14.18
2019-02-07T06:01:01.251Z,15.63
2019-02-07T06:03:38.998Z,12.30
2019-02-07T06:06:20.907Z,15.65
2019-02-07T06:09:28.445Z,14.78
2019-02-07T06:12:19.758Z,17.10
2019-02-07T06:15:08.900Z,14.68
2019-02-07T06:17:56.121Z,19.35
2019-02-07T06:20:44.974Z,17.40
2019-02-07T06:23:39.249Z,17.90
2019-02-07T06:26:31.046Z,22.05
2019-02-07T06:29:19.554Z,16.37
2019-02-07T06:32:16.027Z,17.62
2019-02-07T06:35:03.267Z,16.32
2019-02-07T06:37:50.188Z,20.23
2019-02-07T06:40:37.201Z,17.20
2019-02-07T06:43:44.997Z,18.70
2019-02-07T06:52:39.358Z,16.37
2019-02-07T06:55:26.761Z,15.70
2019-02-07T06:58:14.065Z,16.42
2019-02-07T07:01:20.521Z,21.12
2019-02-07T07:04:07.202Z,18.50
2019-02-07T07:06:53.955Z,20.50
2019-02-07T07:09:48.367Z,13.72
2019-02-07T07:12:29.633Z,22.42
2019-02-07T07:15:11.877Z,18.05
2019-02-07T07:18:09.724Z,19.90
2019-02-07T07:20:59.560Z,22.50
2019-02-07T07:23:57.497Z,16.05
2019-02-07T07:26:44.640Z,19.07
2019-02-07T07:29:35.401Z,19.70
2019-02-07T07:32:23.181Z,20.08
2019-02-07T07:35:14.966Z,22.60
2019-02-07T07:38:12.472Z,19.77
2019-02-07T07:40:53.885Z,20.72
2019-02-07T07:43:30.825Z,13.98
2019-02-07T07:46:20.984Z,20.20
2019-02-07T07:49:05.336Z,22.45
2019-02-07T07:52:00.046Z,19.80
2019-02-07T07:54:39.533Z,17.57
2019-02-07T07:57:36.883Z,30.75
2019-02-07T08:00:36.860Z,21.52
2019-02-07T08:03:23.794Z,23.95
2019-02-07T08:06:30.612Z,22.07
2019-02-07T08:09:24.856Z,20.02
2019-02-07T08:12:11.073Z,20.05
2019-02-07T08:14:58.137Z,30.65
2019-02-07T08:17:55.486Z,24.02
2019-02-07T08:20:42.629Z,23.92
2019-02-07T08:23:17.579Z,20.68
2019-02-07T08:26:09.110Z,22.10
2019-02-07T08:29:09.539Z,21.75
2019-02-07T08:31:58.064Z,25.43
2019-02-07T08:34:55.526Z,27.05
2019-02-07T08:37:42.760Z,21.42
2019-02-07T08:40:23.667Z,22.75
2019-02-07T08:43:15.240Z,18.07
2019-02-07T08:46:03.821Z,22.60
2019-02-07T08:48:55.214Z,22.80
2019-02-07T08:51:49.999Z,21.35
2019-02-07T08:54:37.030Z,27.05
2019-02-07T08:57:40.525Z,23.80
2019-02-07T09:00:32.112Z,25.20
2019-02-07T09:03:12.520Z,29.10
2019-02-07T09:06:16.286Z,27.80
2019-02-07T09:09:04.823Z,22.02
2019-02-07T09:11:53.059Z,25.27
2019-02-07T09:14:56.571Z,26.80
2019-02-07T09:18:09.996Z,26.12
2019-02-07T09:20:48.297Z,22.82
2019-02-07T09:23:35.215Z,25.62
2019-02-07T09:26:22.015Z,23.10
2019-02-07T09:29:00.482Z,24.12
2019-02-07T09:31:57.919Z,23.12
2019-02-07T09:34:43.896Z,20.20
2019-02-07T09:37:38.722Z,18.90
2019-02-07T09:40:27.911Z,21.77
2019-02-07T09:43:16.517Z,21.93
2019-02-07T09:46:05.015Z,22.40
2019-02-07T09:49:11.894Z,22.45
2019-02-07T09:52:03.898Z,29.92
2019-02-07T09:54:58.101Z,18.45
2019-02-07T09:57:49.764Z,18.45
2019-02-07T10:00:32.088Z,23.98
2019-02-07T10:03:35.533Z,23.65
2019-02-07T10:06:27.246Z,19.23
2019-02-07T10:09:11.617Z,19.82
2019-02-07T10:12:03.319Z,20.85
2019-02-07T10:14:57.892Z,22.20
2019-02-07T10:17:57.861Z,19.92
2019-02-07T10:20:49.317Z,31.45
2019-02-07T10:23:40.170Z,24.20
2019-02-07T10:26:27.047Z,18.40
2019-02-07T10:29:15.611Z,22.60
2019-02-07T10:32:04.365Z,27.35
2019-02-07T10:34:51.431Z,23.98
2019-02-07T10:37:44.262Z,22.00
2019-02-07T10:40:39.980Z,22.60
2019-02-07T10:43:43.833Z,16.87
2019-02-07T10:46:30.967Z,21.70
2019-02-07T10:49:17.869Z,16.80
2019-02-07T10:52:06.598Z,23.57
2019-02-07T10:54:54.255Z,21.48
2019-02-07T10:57:41.509Z,22.35
2019-02-07T11:00:44.150Z,27.98
2019-02-07T11:03:35.600Z,21.68
2019-02-07T11:06:25.203Z,27.32
2019-02-07T11:09:12.388Z,22.02
2019-02-07T11:12:12.804Z,19.23
2019-02-07T11:14:59.957Z,21.42
2019-02-07T11:17:47.675Z,22.48
2019-02-07T11:20:45.663Z,19.30
2019-02-07T11:23:52.734Z,20.57
2019-02-07T11:26:44.788Z,17.20
2019-02-07T11:29:33.361Z,21.97
2019-02-07T11:32:28.076Z,17.15
2019-02-07T11:35:15.314Z,20.20
2019-02-07T11:38:09.716Z,17.60
2019-02-07T11:41:01.506Z,16.07
2019-02-07T11:43:53.154Z,18.55
2019-02-07T11:46:48.891Z,15.50
2019-02-07T11:49:36.476Z,17.25
2019-02-07T11:52:43.807Z,17.45
2019-02-07T11:55:32.464Z,13.78
2019-02-07T11:58:27.533Z,16.35
2019-02-07T12:01:14.536Z,13.13
2019-02-07T12:03:55.803Z,11.93
2019-02-07T12:06:36.611Z,14.15
2019-02-07T12:09:26.563Z,14.10
2019-02-07T12:12:21.340Z,14.70
2019-02-07T12:15:08.647Z,16.55
2019-02-07T12:17:57.789Z,12.15
2019-02-07T12:20:52.172Z,12.23
2019-02-07T12:23:40.773Z,18.42
2019-02-07T12:26:32.826Z,15.60
2019-02-07T12:29:39.338Z,15.05
2019-02-07T12:32:29.131Z,17.60
2019-02-07T12:35:16.698Z,17.35
2019-02-07T12:38:08.650Z,11.55
2019-02-07T12:40:54.921Z,14.90
2019-02-07T12:43:46.241Z,10.35
2019-02-07T12:46:33.204Z,14.28
2019-02-07T12:49:33.243Z,13.90
2019-02-07T12:52:17.237Z,11.75
2019-02-07T12:55:05.769Z,14.33
2019-02-07T12:58:00.137Z,12.15
2019-02-07T13:00:47.038Z,12.28
2019-02-07T13:03:38.391Z,12.90
2019-02-07T13:06:25.713Z,13.38
2019-02-07T13:09:12.646Z,13.30
2019-02-07T13:12:04.021Z,18.82
2019-02-07T13:14:50.315Z,15.43
2019-02-07T13:17:44.897Z,18.60
2019-02-07T13:20:43.219Z,13.95
2019-02-07T13:23:30.368Z,13.20
2019-02-07T13:26:17.330Z,16.62
2019-02-07T13:29:00.453Z,13.00
2019-02-07T13:31:52.109Z,16.20
2019-02-07T13:34:46.484Z,17.62
2019-02-07T13:37:34.610Z,14.80
2019-02-07T13:40:32.874Z,19.55
2019-02-07T13:43:30.721Z,16.90
2019-02-07T13:46:15.849Z,15.65
2019-02-07T13:48:58.528Z,16.25
2019-02-07T13:51:58.266Z,15.90
2019-02-07T13:55:01.755Z,15.93
2019-02-07T13:57:58.952Z,13.43
2019-02-07T14:01:05.423Z,18.07
2019-02-07T14:03:52.525Z,18.77
2019-02-07T14:06:33.463Z,18.48
2019-02-07T14:09:26.734Z,20.57
2019-02-07T14:12:14.004Z,20.75
2019-02-07T14:15:03.841Z,14.18
2019-02-07T14:18:04.963Z,19.87
2019-02-07T14:20:53.558Z,15.03
2019-02-07T14:23:44.307Z,12.45
2019-02-07T14:26:31.064Z,19.12
2019-02-07T14:29:32.088Z,17.73
2019-02-07T14:32:29.524Z,11.38
2019-02-07T14:35:23.894Z,16.05
2019-02-07T14:38:10.985Z,17.07
2019-02-07T14:40:51.172Z,17.23
2019-02-07T14:43:38.164Z,16.30
2019-02-07T14:46:31.489Z,16.48
2019-02-07T14:49:01.123Z,16.90
2019-02-07T14:51:30.783Z,12.35
2019-02-07T14:54:00.797Z,17.37
2019-02-07T14:56:30.845Z,16.42
2019-02-07T14:59:01.421Z,17.65
2019-02-07T15:01:31.097Z,17.55
2019-02-07T15:04:00.770Z,19.82
2019-02-07T15:06:30.499Z,17.12
2019-02-07T15:09:00.141Z,17.23
2019-02-07T15:11:30.060Z,13.98
2019-02-07T15:13:59.826Z,15.03
2019-02-07T15:16:29.442Z,15.75
2019-02-07T15:18:59.145Z,13.10
2019-02-07T15:21:28.857Z,13.90
2019-02-07T15:23:58.507Z,13.28
2019-02-07T15:26:28.525Z,20.20
2019-02-07T15:28:58.133Z,15.72
2019-02-07T15:31:27.832Z,19.07
2019-02-07T15:33:57.475Z,16.65
2019-02-07T15:36:27.103Z,15.40
2019-02-07T15:38:56.741Z,18.57
2019-02-07T15:41:26.662Z,14.60
2019-02-07T15:43:56.325Z,18.67
2019-02-07T15:46:26.098Z,15.65
2019-02-07T15:48:55.791Z,12.30
2019-02-07T15:51:25.384Z,15.88
2019-02-07T15:53:55.068Z,12.47
2019-02-07T15:56:24.901Z,18.77
2019-02-07T15:59:10.640Z,15.28
2019-02-07T16:01:59.192Z,16.42
2019-02-07T16:04:31.967Z,14.85
2019-02-07T16:07:01.577Z,16.60
2019-02-07T16:09:31.261Z,15.20
2019-02-07T16:12:00.919Z,15.65
2019-02-07T16:14:31.644Z,13.40
2019-02-07T16:17:01.671Z,18.73
2019-02-07T16:19:31.631Z,13.28
2019-02-07T16:22:01.225Z,17.87
2019-02-07T16:24:30.857Z,15.28
2019-02-07T16:27:00.492Z,17.00
2019-02-07T16:29:30.138Z,17.10
2019-02-07T16:31:59.968Z,15.90
2019-02-07T16:34:29.624Z,23.75
2019-02-07T16:36:59.389Z,14.80
2019-02-07T16:39:29.060Z,18.50
2019-02-07T16:42:05.861Z,31.95
2019-02-07T16:44:30.567Z,19.30
2019-02-07T16:47:00.196Z,14.43
2019-02-07T16:49:29.833Z,17.67
2019-02-07T16:51:59.465Z,21.42
2019-02-07T16:54:29.228Z,13.53
2019-02-07T16:56:58.904Z,18.70
2019-02-07T16:59:28.904Z,17.73
2019-02-07T17:01:58.667Z,18.60
2019-02-07T17:04:28.373Z,18.73
2019-02-07T17:06:58.017Z,22.15
2019-02-07T17:09:36.358Z,21.35
2019-02-07T17:12:06.696Z,23.00
2019-02-07T17:14:36.423Z,19.02
2019-02-07T17:17:06.134Z,19.37
2019-02-07T17:19:35.827Z,18.12
2019-02-07T17:22:05.945Z,22.45
2019-02-07T17:24:35.623Z,18.65
2019-02-07T17:27:05.748Z,18.37
2019-02-07T17:29:35.427Z,21.55
2019-02-07T17:32:05.412Z,22.50
2019-02-07T17:34:35.264Z,29.85
2019-02-07T17:37:04.922Z,20.30
2019-02-07T17:39:34.672Z,29.05
2019-02-07T17:42:04.676Z,21.97
2019-02-07T17:44:34.404Z,20.97
2019-02-07T17:47:04.064Z,18.57
2019-02-07T17:49:33.721Z,23.87
2019-02-07T17:52:03.398Z,22.25
2019-02-07T17:54:33.131Z,20.80
2019-02-07T17:57:03.081Z,22.65
2019-02-07T17:59:32.969Z,26.93
2019-02-07T18:02:04.235Z,22.30
2019-02-07T18:04:33.863Z,19.42
2019-02-07T18:07:03.899Z,23.52
2019-02-07T18:09:33.576Z,24.60
2019-02-07T18:12:03.227Z,22.58
2019-02-07T18:14:32.882Z,21.33
2019-02-07T18:17:02.554Z,23.70
2019-02-07T18:19:32.318Z,23.40
2019-02-07T18:22:01.961Z,22.87
2019-02-07T18:24:31.628Z,23.95
2019-02-07T18:27:01.304Z,23.95
2019-02-07T18:29:30.995Z,26.05
2019-02-07T18:32:00.647Z,25.45
2019-02-07T18:34:30.963Z,16.87
2019-02-07T18:37:00.596Z,30.45
2019-02-07T18:39:30.852Z,24.50
2019-02-07T18:42:00.573Z,27.75
2019-02-07T18:44:30.434Z,23.70
2019-02-07T18:47:00.087Z,29.15
2019-02-07T18:49:30.676Z,28.02
2019-02-07T18:52:00.347Z,28.50
2019-02-07T18:54:30.057Z,26.85
2019-02-07T18:56:59.709Z,27.37
2019-02-07T18:59:29.382Z,25.85
2019-02-07T19:01:59.045Z,32.88
2019-02-07T19:04:28.722Z,25.88
2019-02-07T19:06:58.491Z,29.27
2019-02-07T19:09:28.246Z,28.98
2019-02-07T19:11:57.972Z,31.35
2019-02-07T19:14:27.607Z,31.33
2019-02-07T19:16:57.251Z,34.33
2019-02-07T19:19:26.938Z,29.32
2019-02-07T19:21:57.549Z,31.57
2019-02-07T19:24:27.313Z,26.60
2019-02-07T19:26:56.977Z,27.82
2019-02-07T19:29:26.610Z,29.00
2019-02-07T19:31:56.437Z,26.42
2019-02-07T19:34:26.099Z,32.98
2019-02-07T19:36:55.738Z,31.77
2019-02-07T19:39:25.417Z,30.88
2019-02-07T19:41:55.083Z,32.33
2019-02-07T19:44:24.782Z,32.58
2019-02-07T19:46:54.479Z,31.73
2019-02-07T19:49:24.283Z,38.17
2019-02-07T19:51:53.953Z,33.35
2019-02-07T19:54:23.652Z,36.73
2019-02-07T19:56:53.533Z,39.00
2019-02-07T19:59:23.159Z,36.80
2019-02-07T20:01:52.768Z,36.38
2019-02-07T20:04:22.489Z,35.05
2019-02-07T20:06:52.138Z,33.60
2019-02-07T20:09:22.138Z,36.33
2019-02-07T20:11:52.019Z,32.42
2019-02-07T20:14:21.669Z,34.35
2019-02-07T20:16:51.333Z,41.45
2019-02-07T20:19:20.973Z,39.27
2019-02-07T20:21:50.657Z,39.73
2019-02-07T20:24:20.328Z,38.15
2019-02-07T20:26:50.310Z,34.15
2019-02-07T20:29:20.013Z,37.15
2019-02-07T20:31:49.932Z,34.78
2019-02-07T20:34:19.624Z,41.33
2019-02-07T20:36:49.249Z,40.48
2019-02-07T20:39:19.056Z,36.98
2019-02-07T20:41:48.736Z,34.03
2019-02-07T20:44:18.395Z,33.05
2019-02-07T20:46:48.151Z,35.23
2019-02-07T20:49:17.832Z,30.60
2019-02-07T20:51:47.491Z,26.93
2019-02-07T20:54:17.198Z,34.83
2019-02-07T20:56:46.832Z,31.52
2019-02-07T20:59:16.835Z,29.37
2019-02-07T21:01:46.485Z,32.98
2019-02-07T21:04:16.181Z,32.28
2019-02-07T21:06:45.819Z,29.75
2019-02-07T21:09:15.479Z,26.33
2019-02-07T21:11:45.106Z,36.80
2019-02-07T21:14:15.101Z,31.75
2019-02-07T21:16:44.848Z,32.93
2019-02-07T21:19:14.530Z,29.23
2019-02-07T21:21:44.384Z,28.42
2019-02-07T21:24:14.039Z,30.05
2019-02-07T21:26:43.720Z,33.40
2019-02-07T21:29:13.412Z,28.38
2019-02-07T21:31:43.122Z,36.23
2019-02-07T21:34:12.815Z,32.33
2019-02-07T21:36:42.529Z,35.35
2019-02-07T21:39:12.394Z,40.78
2019-02-07T21:41:42.104Z,37.00
2019-02-07T21:44:11.853Z,31.55
2019-02-07T21:46:41.807Z,32.88
2019-02-07T21:49:11.590Z,33.67
2019-02-07T21:51:41.238Z,34.27
2019-02-07T21:54:11.015Z,34.60
2019-02-07T21:56:40.716Z,32.55
2019-02-07T21:59:10.405Z,37.83
2019-02-07T22:01:40.633Z,31.93
2019-02-07T22:04:10.341Z,35.48
2019-02-07T22:06:40.020Z,36.20
2019-02-07T22:09:13.314Z,36.93
2019-02-07T22:11:43.007Z,32.67
2019-02-07T22:14:12.694Z,29.55
2019-02-07T22:16:42.562Z,34.90
2019-02-07T22:19:12.291Z,30.70
2019-02-07T22:21:41.941Z,31.97
2019-02-07T22:24:11.647Z,38.20
2019-02-07T22:26:41.286Z,38.98
2019-02-07T22:29:10.980Z,35.00
2019-02-07T22:31:41.186Z,30.65
2019-02-07T22:34:10.951Z,32.23
2019-02-07T22:36:40.657Z,34.38
2019-02-07T22:39:10.420Z,39.33
2019-02-07T22:41:40.134Z,46.13
2019-02-07T22:44:09.882Z,42.90
2019-02-07T22:46:39.508Z,37.30
2019-02-07T22:49:09.257Z,41.50
2019-02-07T22:51:39.828Z,43.17
2019-02-07T22:54:09.646Z,45.95
2019-02-07T22:56:45.398Z,43.33
2019-02-07T22:59:10.606Z,36.03
2019-02-07T23:01:52.799Z,43.80
2019-02-07T23:04:23.981Z,39.13
2019-02-07T23:06:53.789Z,40.52
2019-02-07T23:09:23.501Z,38.65
2019-02-07T23:11:53.555Z,41.50
2019-02-07T23:14:23.571Z,47.55
2019-02-07T23:16:53.355Z,43.02
2019-02-07T23:19:22.979Z,44.05
2019-02-07T23:21:52.717Z,41.95
2019-02-07T23:24:22.531Z,39.05
2019-02-07T23:26:52.503Z,39.80
2019-02-07T23:29:22.148Z,42.40
2019-02-07T23:31:51.825Z,38.17
2019-02-07T23:34:21.456Z,43.38
2019-02-07T23:36:51.124Z,42.80
2019-02-07T23:39:20.774Z,38.20
2019-02-07T23:41:50.628Z,39.75
2019-02-07T23:44:20.351Z,37.05
2019-02-07T23:46:50.017Z,43.70
2019-02-07T23:49:19.650Z,43.95
2019-02-07T23:51:49.309Z,41.23
2019-02-07T23:54:18.983Z,38.13
2019-02-07T23:56:49.070Z,35.23
2019-02-07T23:59:18.700Z,44.45
